createdAt,value
2023-02-06T00:01:52.793Z,8.77
2023-02-06T00:04:21.693Z,8.48
2023-02-06T00:06:51.490Z,8.60
2023-02-06T00:09:20.474Z,8.72
2023-02-06T00:11:49.154Z,8.81
2023-02-06T00:14:19.678Z,8.77
2023-02-06T00:16:48.206Z,8.70
2023-02-06T00:19:16.765Z,8.68
2023-02-06T00:21:45.583Z,8.70
2023-02-06T00:24:14.078Z,8.60
2023-02-06T00:26:42.780Z,8.62
2023-02-06T00:29:11.330Z,8.62
2023-02-06T00:31:41.549Z,8.62
2023-02-06T00:34:10.990Z,8.61
2023-02-06T00:36:39.524Z,8.54
2023-02-06T00:39:08.131Z,8.54
2023-02-06T00:41:36.682Z,8.51
2023-02-06T00:44:05.363Z,8.51
2023-02-06T00:46:34.128Z,8.50
2023-02-06T00:49:05.100Z,8.55
2023-02-06T00:51:33.876Z,8.43
2023-02-06T00:54:02.696Z,8.38
2023-02-06T00:56:31.299Z,8.46
2023-02-06T00:59:00.306Z,8.42
2023-02-06T01:01:29.690Z,8.43
2023-02-06T01:03:58.378Z,8.53
2023-02-06T01:06:28.376Z,8.48
2023-02-06T01:08:57.141Z,8.46
2023-02-06T01:11:27.671Z,8.26
2023-02-06T01:13:56.809Z,8.61
2023-02-06T01:16:26.835Z,8.43
2023-02-06T01:18:55.984Z,8.18
2023-02-06T01:21:28.143Z,8.51
2023-02-06T01:23:57.473Z,8.68
2023-02-06T01:26:28.157Z,8.49
2023-02-06T01:28:57.993Z,8.63
2023-02-06T01:31:28.667Z,8.74
2023-02-06T01:34:00.281Z,8.86
2023-02-06T01:36:30.940Z,8.81
2023-02-06T01:39:00.521Z,8.83
2023-02-06T01:41:29.275Z,8.79
2023-02-06T01:44:15.788Z,8.88
2023-02-06T01:46:47.187Z,8.79
2023-02-06T01:49:21.978Z,8.80
2023-02-06T01:51:55.319Z,8.92
2023-02-06T01:54:24.393Z,8.86
2023-02-06T01:56:57.629Z,8.85
2023-02-06T01:59:27.701Z,8.75
2023-02-06T02:01:56.552Z,8.72
2023-02-06T02:04:28.058Z,8.52
2023-02-06T02:07:07.857Z,8.76
2023-02-06T02:09:36.602Z,8.77
2023-02-06T02:12:06.284Z,8.78
2023-02-06T02:14:35.410Z,8.71
2023-02-06T02:17:22.035Z,8.72
2023-02-06T02:20:47.696Z,8.70
2023-02-06T02:23:32.698Z,8.68
2023-02-06T02:26:43.636Z,8.63
2023-02-06T02:29:53.573Z,8.58
2023-02-06T02:33:11.685Z,8.48
2023-02-06T02:35:54.589Z,8.44
2023-02-06T02:38:39.735Z,8.38
2023-02-06T02:41:16.765Z,8.29
2023-02-06T02:43:52.396Z,8.21
2023-02-06T02:46:27.639Z,8.16
2023-02-06T02:48:58.273Z,8.08
2023-02-06T02:51:28.512Z,8.09
2023-02-06T02:53:58.304Z,8.01
2023-02-06T02:56:28.720Z,7.99
2023-02-06T02:59:03.412Z,8.03
2023-02-06T03:01:36.896Z,8.03
2023-02-06T03:04:13.416Z,7.98
2023-02-06T03:07:02.093Z,7.90
2023-02-06T03:09:46.052Z,7.84
2023-02-06T03:12:23.036Z,7.83
2023-02-06T03:15:01.119Z,7.78
2023-02-06T03:17:37.674Z,7.75
2023-02-06T03:20:09.893Z,7.75
2023-02-06T03:22:42.074Z,7.65
2023-02-06T03:25:17.458Z,7.66
2023-02-06T03:27:48.150Z,7.60
2023-02-06T03:30:20.592Z,7.54
2023-02-06T03:32:55.044Z,7.50
2023-02-06T03:35:30.324Z,7.41
2023-02-06T03:38:00.150Z,7.37
2023-02-06T03:40:29.507Z,7.38
2023-02-06T03:43:02.655Z,7.33
2023-02-06T03:45:38.146Z,7.33
2023-02-06T03:48:15.722Z,7.23
2023-02-06T03:50:50.276Z,7.25
2023-02-06T03:53:22.472Z,7.19
2023-02-06T03:55:57.732Z,7.17
2023-02-06T03:58:26.104Z,7.05
2023-02-06T04:00:54.851Z,7.11
2023-02-06T04:03:23.786Z,7.11
2023-02-06T04:05:52.356Z,7.09
2023-02-06T04:08:22.315Z,7.04
2023-02-06T04:10:50.864Z,7.18
2023-02-06T04:13:31.526Z,7.07
2023-02-06T04:16:00.459Z,7.18
2023-02-06T04:18:29.012Z,7.08
2023-02-06T04:20:57.570Z,7.08
2023-02-06T04:23:27.610Z,7.15
2023-02-06T04:25:56.286Z,7.11
2023-02-06T04:28:24.850Z,7.04
2023-02-06T04:30:53.443Z,7.06
2023-02-06T04:33:22.105Z,7.08
2023-02-06T04:35:50.755Z,7.05
2023-02-06T04:38:19.325Z,7.04
2023-02-06T04:40:49.212Z,7.01
2023-02-06T04:43:17.713Z,6.88
2023-02-06T04:45:47.622Z,6.95
2023-02-06T04:48:16.065Z,6.95
2023-02-06T04:50:44.588Z,6.99
2023-02-06T04:53:13.272Z,6.99
2023-02-06T04:55:41.858Z,7.02
2023-02-06T04:58:12.646Z,6.94
2023-02-06T05:00:41.076Z,7.01
2023-02-06T05:03:09.801Z,6.97
2023-02-06T05:05:38.357Z,7.01
2023-02-06T05:08:07.229Z,7.05
2023-02-06T05:10:35.785Z,7.11
2023-02-06T05:13:05.496Z,7.12
2023-02-06T05:15:37.486Z,7.16
2023-02-06T05:18:06.736Z,7.14
2023-02-06T05:20:35.350Z,7.15
2023-02-06T05:23:06.664Z,7.14
2023-02-06T05:25:36.636Z,7.17
2023-02-06T05:28:07.613Z,7.19
2023-02-06T05:30:38.168Z,7.08
2023-02-06T05:33:06.591Z,7.16
2023-02-06T05:35:36.031Z,7.20
2023-02-06T05:38:04.960Z,7.20
2023-02-06T05:40:33.677Z,7.23
2023-02-06T05:43:02.334Z,7.23
2023-02-06T05:45:31.028Z,7.28
2023-02-06T05:48:01.344Z,7.08
2023-02-06T05:50:30.141Z,7.25
2023-02-06T05:52:58.719Z,7.25
2023-02-06T05:55:27.610Z,7.22
2023-02-06T05:57:57.272Z,7.30
2023-02-06T06:00:26.187Z,7.32
2023-02-06T06:02:54.996Z,7.40
2023-02-06T06:05:25.853Z,7.43
2023-02-06T06:07:54.508Z,7.46
2023-02-06T06:10:23.083Z,7.48
2023-02-06T06:12:51.870Z,7.53
2023-02-06T06:15:20.534Z,7.62
2023-02-06T06:17:49.223Z,7.53
2023-02-06T06:20:18.303Z,7.63
2023-02-06T06:22:48.628Z,7.66
2023-02-06T06:25:17.390Z,7.63
2023-02-06T06:27:45.997Z,7.67
2023-02-06T06:30:15.476Z,7.68
2023-02-06T06:32:44.216Z,7.71
2023-02-06T06:35:12.697Z,7.69
2023-02-06T06:37:41.588Z,7.68
2023-02-06T06:40:13.158Z,7.67
2023-02-06T06:42:41.739Z,7.67
2023-02-06T06:45:11.195Z,7.71
2023-02-06T06:47:39.876Z,7.67
2023-02-06T06:50:09.044Z,7.68
2023-02-06T06:52:37.925Z,7.70
2023-02-06T06:55:07.598Z,7.74
2023-02-06T06:57:37.595Z,7.76
2023-02-06T07:00:07.607Z,7.75
2023-02-06T07:02:36.170Z,7.72
2023-02-06T07:05:05.472Z,7.74
2023-02-06T07:07:34.652Z,7.70
2023-02-06T07:10:03.603Z,7.69
2023-02-06T07:12:32.408Z,7.66
2023-02-06T07:15:05.696Z,7.68
2023-02-06T07:17:34.976Z,7.66
2023-02-06T07:20:03.771Z,7.65
2023-02-06T07:22:32.402Z,7.67
2023-02-06T07:25:01.150Z,7.70
2023-02-06T07:27:29.699Z,7.75
2023-02-06T07:29:59.739Z,7.70
2023-02-06T07:32:29.715Z,7.74
2023-02-06T07:34:58.285Z,7.73
2023-02-06T07:37:27.010Z,7.81
2023-02-06T07:39:55.446Z,7.77
2023-02-06T07:42:24.005Z,7.87
2023-02-06T07:44:52.585Z,7.86
2023-02-06T07:47:21.117Z,7.87
2023-02-06T07:49:52.199Z,7.95
2023-02-06T07:52:22.395Z,8.01
2023-02-06T07:54:51.017Z,8.02
2023-02-06T07:57:20.088Z,7.97
2023-02-06T07:59:48.585Z,8.11
2023-02-06T08:02:17.086Z,8.02
2023-02-06T08:04:45.866Z,8.14
2023-02-06T08:07:19.265Z,8.10
2023-02-06T08:09:47.972Z,8.12
2023-02-06T08:12:16.602Z,8.11
2023-02-06T08:14:45.986Z,7.93
2023-02-06T08:17:19.644Z,8.27
2023-02-06T08:19:49.590Z,8.38
2023-02-06T08:22:19.679Z,8.36
2023-02-06T08:24:48.901Z,8.30
2023-02-06T08:27:17.538Z,8.25
2023-02-06T08:29:46.225Z,8.27
2023-02-06T08:32:14.970Z,8.33
2023-02-06T08:34:43.705Z,8.61
2023-02-06T08:37:12.693Z,8.63
2023-02-06T08:39:43.045Z,8.79
2023-02-06T08:42:12.658Z,8.76
2023-02-06T08:44:41.178Z,8.92
2023-02-06T08:47:10.739Z,9.05
2023-02-06T08:49:39.921Z,9.00
2023-02-06T08:52:08.898Z,9.01
2023-02-06T08:54:38.913Z,9.30
2023-02-06T08:57:09.874Z,9.10
2023-02-06T08:59:38.665Z,9.35
2023-02-06T09:02:08.608Z,9.55
2023-02-06T09:04:37.947Z,9.57
2023-02-06T09:07:07.290Z,9.66
2023-02-06T09:09:36.034Z,9.73
2023-02-06T09:12:05.366Z,9.78
2023-02-06T09:14:35.663Z,9.77
2023-02-06T09:17:04.487Z,9.94
2023-02-06T09:19:33.155Z,9.95
2023-02-06T09:22:01.995Z,9.79
2023-02-06T09:24:32.594Z,9.92
2023-02-06T09:27:01.337Z,9.78
2023-02-06T09:29:31.985Z,10.04
2023-02-06T09:32:02.912Z,10.07
2023-02-06T09:34:31.692Z,10.01
2023-02-06T09:37:03.537Z,10.14
2023-02-06T09:39:32.681Z,10.07
2023-02-06T09:42:08.500Z,10.24
2023-02-06T09:44:43.353Z,10.38
2023-02-06T09:47:24.176Z,10.40
2023-02-06T09:49:57.758Z,10.47
2023-02-06T09:52:45.667Z,10.46
2023-02-06T09:55:27.535Z,10.59
2023-02-06T09:58:04.985Z,10.55
2023-02-06T10:00:44.091Z,10.63
2023-02-06T10:03:36.447Z,10.58
2023-02-06T10:06:19.499Z,11.21
2023-02-06T10:08:59.600Z,11.44
2023-02-06T10:11:42.638Z,11.57
2023-02-06T10:14:22.380Z,11.98
2023-02-06T10:16:57.807Z,11.69
2023-02-06T10:19:43.900Z,12.58
2023-02-06T10:22:21.198Z,12.01
2023-02-06T10:25:01.671Z,12.45
2023-02-06T10:27:34.554Z,12.70
2023-02-06T10:30:04.238Z,12.95
2023-02-06T10:32:45.937Z,13.09
2023-02-06T10:35:41.121Z,13.89
2023-02-06T10:38:53.263Z,13.81
2023-02-06T10:41:33.586Z,13.69
2023-02-06T10:44:17.627Z,13.52
2023-02-06T10:46:51.000Z,13.13
2023-02-06T10:49:30.563Z,13.13
2023-02-06T10:52:05.042Z,13.46
2023-02-06T10:54:40.054Z,13.56
2023-02-06T10:57:18.486Z,12.90
2023-02-06T10:59:53.665Z,13.11
2023-02-06T11:02:35.584Z,12.99
2023-02-06T11:05:10.744Z,12.89
2023-02-06T11:07:46.531Z,13.02
2023-02-06T11:10:19.104Z,13.34
2023-02-06T11:12:53.226Z,13.21
2023-02-06T11:15:32.766Z,13.13
2023-02-06T11:18:05.662Z,12.85
2023-02-06T11:20:37.924Z,13.28
2023-02-06T11:23:20.440Z,13.11
2023-02-06T11:25:58.294Z,13.08
2023-02-06T11:28:28.161Z,12.99
2023-02-06T11:31:00.041Z,13.29
2023-02-06T11:33:39.178Z,13.55
2023-02-06T11:36:27.360Z,13.54
2023-02-06T11:39:00.964Z,13.62
2023-02-06T11:41:31.499Z,13.26
2023-02-06T11:44:06.600Z,14.02
2023-02-06T11:46:37.391Z,13.80
2023-02-06T11:49:22.620Z,13.60
2023-02-06T11:51:54.396Z,13.52
2023-02-06T11:54:30.661Z,13.49
2023-02-06T11:57:04.495Z,13.38
2023-02-06T11:59:35.485Z,13.95
2023-02-06T12:02:23.560Z,14.00
2023-02-06T12:04:54.593Z,13.89
2023-02-06T12:07:31.249Z,13.90
2023-02-06T12:10:06.887Z,13.34
2023-02-06T12:12:39.146Z,13.67
2023-02-06T12:15:39.963Z,13.56
2023-02-06T12:18:08.180Z,12.60
2023-02-06T12:20:48.515Z,13.49
2023-02-06T12:23:26.032Z,13.60
2023-02-06T12:26:01.219Z,13.45
2023-02-06T12:28:35.518Z,13.48
2023-02-06T12:31:11.512Z,13.53
2023-02-06T12:33:46.390Z,13.60
2023-02-06T12:36:21.010Z,13.88
2023-02-06T12:38:56.236Z,13.63
2023-02-06T12:41:45.418Z,13.16
2023-02-06T12:44:28.250Z,13.83
2023-02-06T12:47:07.802Z,14.14
2023-02-06T12:49:47.039Z,13.62
2023-02-06T12:52:23.244Z,13.76
2023-02-06T12:54:56.969Z,14.17
2023-02-06T12:57:31.301Z,14.12
2023-02-06T13:00:41.691Z,13.70
2023-02-06T13:03:32.799Z,13.96
2023-02-06T13:06:26.115Z,13.83
2023-02-06T13:08:59.862Z,13.91
2023-02-06T13:11:33.317Z,14.06
2023-02-06T13:14:08.840Z,13.73
2023-02-06T13:16:54.207Z,13.81
2023-02-06T13:19:28.899Z,13.95
2023-02-06T13:22:43.105Z,13.64
2023-02-06T13:25:54.742Z,13.97
2023-02-06T13:28:59.043Z,13.93
2023-02-06T13:31:35.622Z,14.14
2023-02-06T13:34:17.024Z,13.86
2023-02-06T13:36:54.255Z,13.88
2023-02-06T13:39:34.201Z,13.91
2023-02-06T13:42:45.022Z,13.38
2023-02-06T13:45:24.521Z,13.52
2023-02-06T13:48:57.755Z,13.69
2023-02-06T13:51:48.540Z,13.93
2023-02-06T13:55:02.485Z,13.85
2023-02-06T13:57:54.968Z,13.11
2023-02-06T14:00:30.512Z,13.66
2023-02-06T14:03:14.844Z,13.68
2023-02-06T14:05:55.687Z,13.62
2023-02-06T14:08:38.748Z,14.07
2023-02-06T14:11:28.181Z,14.00
2023-02-06T14:14:31.003Z,14.31
2023-02-06T14:17:14.842Z,13.88
2023-02-06T14:19:52.769Z,14.09
2023-02-06T14:22:35.450Z,14.21
2023-02-06T14:25:23.318Z,13.76
2023-02-06T14:28:13.057Z,14.14
2023-02-06T14:30:52.465Z,13.86
2023-02-06T14:33:44.524Z,13.81
2023-02-06T14:36:34.125Z,13.85
2023-02-06T14:39:48.511Z,13.75
2023-02-06T14:42:22.100Z,13.84
2023-02-06T14:44:57.289Z,13.80
2023-02-06T14:47:32.602Z,13.46
2023-02-06T14:50:02.984Z,13.24
2023-02-06T14:52:35.932Z,13.60
2023-02-06T14:55:35.686Z,13.56
2023-02-06T14:58:06.090Z,13.36
2023-02-06T15:00:36.634Z,13.46
2023-02-06T15:03:15.859Z,13.07
2023-02-06T15:05:46.736Z,13.34
2023-02-06T15:08:22.137Z,13.54
2023-02-06T15:11:02.589Z,13.29
2023-02-06T15:13:38.689Z,13.32
2023-02-06T15:16:10.360Z,13.40
2023-02-06T15:18:39.438Z,13.00
2023-02-06T15:21:14.052Z,13.08
2023-02-06T15:23:59.706Z,13.26
2023-02-06T15:26:38.267Z,13.12
2023-02-06T15:29:14.924Z,13.07
2023-02-06T15:31:50.107Z,12.97
2023-02-06T15:34:22.970Z,12.90
2023-02-06T15:36:51.980Z,12.54
2023-02-06T15:39:22.902Z,12.57
2023-02-06T15:41:53.928Z,12.53
2023-02-06T15:44:29.669Z,12.23
2023-02-06T15:46:59.339Z,12.26
2023-02-06T15:49:40.299Z,12.05
2023-02-06T15:52:10.325Z,11.96
2023-02-06T15:54:44.971Z,12.06
2023-02-06T15:57:31.529Z,11.30
2023-02-06T16:00:03.778Z,11.80
2023-02-06T16:02:36.314Z,11.79
2023-02-06T16:05:22.130Z,11.57
2023-02-06T16:07:51.343Z,11.57
2023-02-06T16:10:25.987Z,11.52
2023-02-06T16:12:59.111Z,11.54
2023-02-06T16:15:38.728Z,11.45
2023-02-06T16:18:29.071Z,11.45
2023-02-06T16:21:15.090Z,11.33
2023-02-06T16:23:49.811Z,11.43
2023-02-06T16:26:23.415Z,11.33
2023-02-06T16:29:00.811Z,11.19
2023-02-06T16:31:32.880Z,11.21
2023-02-06T16:34:03.451Z,11.21
2023-02-06T16:36:38.385Z,11.14
2023-02-06T16:39:07.684Z,11.15
2023-02-06T16:41:42.973Z,11.07
2023-02-06T16:44:17.330Z,11.01
2023-02-06T16:46:46.834Z,10.86
2023-02-06T16:49:19.770Z,10.70
2023-02-06T16:51:51.319Z,10.74
2023-02-06T16:54:26.464Z,10.63
2023-02-06T16:57:00.080Z,10.51
2023-02-06T16:59:29.384Z,10.44
2023-02-06T17:01:58.259Z,10.28
2023-02-06T17:04:27.272Z,10.22
2023-02-06T17:06:56.560Z,10.17
2023-02-06T17:09:25.334Z,10.12
2023-02-06T17:11:55.683Z,9.94
2023-02-06T17:14:24.783Z,9.91
2023-02-06T17:16:56.321Z,9.81
2023-02-06T17:19:27.976Z,9.67
2023-02-06T17:21:56.542Z,9.57
2023-02-06T17:24:25.543Z,9.49
2023-02-06T17:26:56.071Z,9.42
2023-02-06T17:29:25.392Z,9.31
2023-02-06T17:31:54.220Z,9.27
2023-02-06T17:34:25.645Z,9.28
2023-02-06T17:36:56.148Z,9.22
2023-02-06T17:39:25.685Z,9.06
2023-02-06T17:41:56.730Z,9.03
2023-02-06T17:44:25.580Z,9.00
2023-02-06T17:46:54.270Z,8.93
2023-02-06T17:49:23.094Z,8.91
2023-02-06T17:51:52.070Z,8.98
2023-02-06T17:54:20.842Z,9.02
2023-02-06T17:56:49.874Z,9.00
2023-02-06T17:59:20.629Z,8.85
2023-02-06T18:01:49.600Z,8.83
2023-02-06T18:04:21.435Z,8.54
2023-02-06T18:06:50.451Z,8.49
2023-02-06T18:09:19.418Z,8.65
2023-02-06T18:11:48.325Z,8.64
2023-02-06T18:14:17.639Z,8.63
2023-02-06T18:16:48.463Z,8.55
2023-02-06T18:19:24.130Z,8.43
2023-02-06T18:21:53.430Z,8.38
2023-02-06T18:24:22.488Z,8.35
2023-02-06T18:26:51.849Z,8.38
2023-02-06T18:29:20.638Z,8.35
2023-02-06T18:31:51.052Z,8.27
2023-02-06T18:34:20.570Z,8.18
2023-02-06T18:36:49.698Z,8.15
2023-02-06T18:39:19.045Z,8.15
2023-02-06T18:42:05.845Z,8.11
2023-02-06T18:44:44.333Z,8.07
2023-02-06T18:47:18.981Z,8.04
2023-02-06T18:49:48.380Z,8.00
2023-02-06T18:52:18.115Z,7.93
2023-02-06T18:54:48.916Z,7.83
2023-02-06T18:57:19.140Z,7.72
2023-02-06T18:59:48.439Z,7.71
2023-02-06T19:02:18.982Z,7.64
2023-02-06T19:04:50.934Z,7.58
2023-02-06T19:07:20.053Z,7.51
2023-02-06T19:09:49.098Z,7.05
2023-02-06T19:12:17.998Z,7.19
2023-02-06T19:14:46.745Z,7.30
2023-02-06T19:17:17.733Z,7.26
2023-02-06T19:19:46.838Z,7.21
2023-02-06T19:22:16.565Z,7.06
2023-02-06T19:24:46.350Z,6.98
2023-02-06T19:27:15.830Z,7.12
2023-02-06T19:29:44.754Z,7.04
2023-02-06T19:32:13.763Z,6.89
2023-02-06T19:34:45.399Z,6.93
2023-02-06T19:37:20.809Z,6.88
2023-02-06T19:39:49.934Z,6.87
2023-02-06T19:42:19.146Z,6.76
2023-02-06T19:44:48.214Z,6.76
2023-02-06T19:47:18.768Z,6.71
2023-02-06T19:49:52.772Z,6.53
2023-02-06T19:52:22.267Z,6.61
2023-02-06T19:54:50.995Z,6.58
2023-02-06T19:57:19.863Z,6.59
2023-02-06T19:59:48.711Z,6.45
2023-02-06T20:02:17.743Z,6.48
2023-02-06T20:04:46.646Z,6.43
2023-02-06T20:07:17.186Z,6.43
2023-02-06T20:09:46.038Z,6.35
2023-02-06T20:12:18.262Z,6.26
2023-02-06T20:14:47.215Z,6.24
2023-02-06T20:17:17.548Z,6.26
2023-02-06T20:19:46.374Z,6.20
2023-02-06T20:22:16.655Z,6.27
2023-02-06T20:24:45.760Z,6.26
2023-02-06T20:27:15.465Z,6.10
2023-02-06T20:29:46.041Z,6.18
2023-02-06T20:32:16.679Z,6.08
2023-02-06T20:34:45.394Z,6.09
2023-02-06T20:37:17.790Z,6.09
2023-02-06T20:39:46.619Z,6.10
2023-02-06T20:42:15.515Z,6.14
2023-02-06T20:44:44.171Z,6.03
2023-02-06T20:47:12.792Z,6.04
2023-02-06T20:49:43.159Z,6.07
2023-02-06T20:52:11.867Z,5.96
2023-02-06T20:54:42.616Z,5.91
2023-02-06T20:57:11.300Z,5.90
2023-02-06T20:59:40.248Z,5.84
2023-02-06T21:02:11.144Z,5.85
2023-02-06T21:04:39.765Z,5.85
2023-02-06T21:07:08.684Z,5.69
2023-02-06T21:09:40.047Z,5.76
2023-02-06T21:12:11.536Z,5.66
2023-02-06T21:14:40.568Z,5.69
2023-02-06T21:17:10.211Z,5.54
2023-02-06T21:19:40.669Z,5.60
2023-02-06T21:22:13.492Z,5.57
2023-02-06T21:24:42.645Z,5.53
2023-02-06T21:27:13.095Z,5.47
2023-02-06T21:29:41.819Z,5.36
2023-02-06T21:32:13.894Z,5.22
2023-02-06T21:34:43.864Z,5.16
2023-02-06T21:37:12.735Z,5.24
2023-02-06T21:39:41.379Z,5.31
2023-02-06T21:42:12.022Z,5.28
2023-02-06T21:44:40.648Z,5.16
2023-02-06T21:47:10.039Z,5.27
2023-02-06T21:49:39.445Z,5.24
2023-02-06T21:52:08.008Z,5.24
2023-02-06T21:54:36.555Z,5.09
2023-02-06T21:57:05.370Z,5.14
2023-02-06T21:59:36.535Z,4.88
2023-02-06T22:02:05.451Z,4.90
2023-02-06T22:04:34.107Z,5.05
2023-02-06T22:07:02.744Z,5.06
2023-02-06T22:09:31.604Z,4.78
2023-02-06T22:12:01.748Z,4.96
2023-02-06T22:14:30.526Z,4.91
2023-02-06T22:17:00.844Z,4.85
2023-02-06T22:19:29.804Z,4.81
2023-02-06T22:21:58.270Z,4.63
2023-02-06T22:24:26.980Z,4.80
2023-02-06T22:26:55.664Z,4.79
2023-02-06T22:29:24.587Z,4.73
2023-02-06T22:31:53.074Z,4.78
2023-02-06T22:34:23.090Z,4.76
2023-02-06T22:36:52.966Z,4.71
2023-02-06T22:39:21.760Z,4.77
2023-02-06T22:41:50.842Z,4.71
2023-02-06T22:44:21.629Z,4.69
2023-02-06T22:46:53.146Z,4.72
2023-02-06T22:49:24.541Z,4.63
2023-02-06T22:51:53.112Z,4.59
2023-02-06T22:54:21.898Z,4.60
2023-02-06T22:56:50.523Z,4.55
2023-02-06T22:59:21.872Z,4.55
2023-02-06T23:01:53.506Z,4.57
2023-02-06T23:04:25.688Z,4.30
2023-02-06T23:06:55.232Z,4.42
2023-02-06T23:09:27.162Z,4.42
2023-02-06T23:11:58.242Z,4.42
2023-02-06T23:14:27.815Z,4.44
2023-02-06T23:16:56.914Z,4.46
2023-02-06T23:19:27.321Z,4.43
2023-02-06T23:21:56.453Z,4.39
2023-02-06T23:24:24.942Z,4.35
2023-02-06T23:26:54.591Z,4.36
2023-02-06T23:29:24.553Z,4.38
2023-02-06T23:31:53.768Z,4.23
2023-02-06T23:34:24.546Z,4.36
2023-02-06T23:36:54.894Z,4.24
2023-02-06T23:39:23.887Z,4.29
2023-02-06T23:41:52.489Z,4.27
2023-02-06T23:44:21.317Z,4.15
2023-02-06T23:46:49.655Z,4.19
2023-02-06T23:49:19.969Z,4.20
2023-02-06T23:51:48.386Z,4.18
2023-02-06T23:54:18.272Z,4.11
2023-02-06T23:56:46.822Z,4.17
2023-02-06T23:59:15.345Z,3.95
